sensor_id;sensor_type;location;lat;lon;timestamp;P1;durP1;ratioP1;P2;durP2;ratioP2
49217;SDS011;35045;51.194;7.268;2022-10-13T00:00:42;21.25;;;13.98;;
49217;SDS011;35045;51.194;7.268;2022-10-13T00:03:09;19.73;;;14.18;;
49217;SDS011;35045;51.194;7.268;2022-10-13T00:05:40;22.30;;;14.02;;
49217;SDS011;35045;51.194;7.268;2022-10-13T00:08:07;18.45;;;12.93;;
49217;SDS011;35045;51.194;7.268;2022-10-13T00:10:37;21.23;;;14.05;;
49217;SDS011;35045;51.194;7.268;2022-10-13T00:13:05;21.90;;;13.95;;
49217;SDS011;35045;51.194;7.268;2022-10-13T00:15:32;22.92;;;13.00;;
49217;SDS011;35045;51.194;7.268;2022-10-13T00:18:01;22.77;;;13.20;;
49217;SDS011;35045;51.194;7.268;2022-10-13T00:20:27;21.08;;;13.77;;
49217;SDS011;35045;51.194;7.268;2022-10-13T00:22:54;23.70;;;13.15;;
49217;SDS011;35045;51.194;7.268;2022-10-13T00:25:20;18.77;;;12.88;;
49217;SDS011;35045;51.194;7.268;2022-10-13T00:27:46;18.23;;;12.88;;
49217;SDS011;35045;51.194;7.268;2022-10-13T00:30:12;20.13;;;12.50;;
49217;SDS011;35045;51.194;7.268;2022-10-13T00:32:38;21.52;;;13.38;;
49217;SDS011;35045;51.194;7.268;2022-10-13T00:35:04;20.05;;;13.00;;
49217;SDS011;35045;51.194;7.268;2022-10-13T00:37:31;19.00;;;13.15;;
49217;SDS011;35045;51.194;7.268;2022-10-13T00:39:57;19.92;;;12.82;;
49217;SDS011;35045;51.194;7.268;2022-10-13T00:42:23;19.70;;;14.15;;
49217;SDS011;35045;51.194;7.268;2022-10-13T00:45:02;19.15;;;12.70;;
49217;SDS011;35045;51.194;7.268;2022-10-13T00:50:06;21.88;;;12.02;;
49217;SDS011;35045;51.194;7.268;2022-10-13T00:52:36;19.85;;;12.30;;
49217;SDS011;35045;51.194;7.268;2022-10-13T00:55:06;25.10;;;13.68;;
49217;SDS011;35045;51.194;7.268;2022-10-13T00:57:33;21.05;;;14.23;;
49217;SDS011;35045;51.194;7.268;2022-10-13T01:00:03;19.42;;;13.20;;
49217;SDS011;35045;51.194;7.268;2022-10-13T01:02:32;21.45;;;12.95;;
49217;SDS011;35045;51.194;7.268;2022-10-13T01:05:00;19.40;;;13.02;;
49217;SDS011;35045;51.194;7.268;2022-10-13T01:07:28;20.17;;;12.73;;
49217;SDS011;35045;51.194;7.268;2022-10-13T01:09:55;18.35;;;13.02;;
49217;SDS011;35045;51.194;7.268;2022-10-13T01:14:57;19.73;;;14.02;;
49217;SDS011;35045;51.194;7.268;2022-10-13T01:17:30;22.35;;;13.98;;
49217;SDS011;35045;51.194;7.268;2022-10-13T01:20:08;18.85;;;12.70;;
49217;SDS011;35045;51.194;7.268;2022-10-13T01:28:31;20.20;;;13.13;;
49217;SDS011;35045;51.194;7.268;2022-10-13T01:34:16;21.90;;;13.48;;
49217;SDS011;35045;51.194;7.268;2022-10-13T01:39:58;19.95;;;12.82;;
49217;SDS011;35045;51.194;7.268;2022-10-13T01:42:35;20.98;;;13.50;;
49217;SDS011;35045;51.194;7.268;2022-10-13T01:45:08;20.48;;;13.98;;
49217;SDS011;35045;51.194;7.268;2022-10-13T01:47:38;19.50;;;13.30;;
49217;SDS011;35045;51.194;7.268;2022-10-13T01:50:06;21.35;;;13.77;;
49217;SDS011;35045;51.194;7.268;2022-10-13T01:52:34;23.75;;;14.00;;
49217;SDS011;35045;51.194;7.268;2022-10-13T01:55:09;23.13;;;13.30;;
49217;SDS011;35045;51.194;7.268;2022-10-13T01:57:40;18.30;;;13.63;;
49217;SDS011;35045;51.194;7.268;2022-10-13T02:00:10;21.67;;;15.30;;
49217;SDS011;35045;51.194;7.268;2022-10-13T02:05:49;21.38;;;13.55;;
49217;SDS011;35045;51.194;7.268;2022-10-13T02:08:45;23.45;;;13.15;;
49217;SDS011;35045;51.194;7.268;2022-10-13T02:11:25;23.00;;;14.40;;
49217;SDS011;35045;51.194;7.268;2022-10-13T02:13:55;21.77;;;13.68;;
49217;SDS011;35045;51.194;7.268;2022-10-13T02:19:07;19.42;;;12.77;;
49217;SDS011;35045;51.194;7.268;2022-10-13T02:21:35;21.98;;;13.50;;
49217;SDS011;35045;51.194;7.268;2022-10-13T02:24:02;22.42;;;14.93;;
49217;SDS011;35045;51.194;7.268;2022-10-13T02:26:30;22.63;;;14.98;;
49217;SDS011;35045;51.194;7.268;2022-10-13T02:28:57;22.65;;;14.55;;
49217;SDS011;35045;51.194;7.268;2022-10-13T02:31:24;22.60;;;15.38;;
49217;SDS011;35045;51.194;7.268;2022-10-13T02:33:50;24.98;;;14.85;;
49217;SDS011;35045;51.194;7.268;2022-10-13T02:36:16;19.90;;;13.57;;
49217;SDS011;35045;51.194;7.268;2022-10-13T02:38:42;22.88;;;14.40;;
49217;SDS011;35045;51.194;7.268;2022-10-13T02:41:08;21.65;;;14.00;;
49217;SDS011;35045;51.194;7.268;2022-10-13T02:43:35;21.80;;;14.63;;
49217;SDS011;35045;51.194;7.268;2022-10-13T02:46:03;23.60;;;14.07;;
49217;SDS011;35045;51.194;7.268;2022-10-13T02:48:29;22.00;;;14.02;;
49217;SDS011;35045;51.194;7.268;2022-10-13T02:50:55;22.58;;;14.05;;
49217;SDS011;35045;51.194;7.268;2022-10-13T02:53:21;20.75;;;13.45;;
49217;SDS011;35045;51.194;7.268;2022-10-13T02:55:47;19.70;;;13.10;;
49217;SDS011;35045;51.194;7.268;2022-10-13T02:58:14;18.88;;;13.35;;
49217;SDS011;35045;51.194;7.268;2022-10-13T03:00:40;19.55;;;13.73;;
49217;SDS011;35045;51.194;7.268;2022-10-13T03:03:06;24.17;;;13.68;;
49217;SDS011;35045;51.194;7.268;2022-10-13T03:05:32;20.38;;;13.35;;
49217;SDS011;35045;51.194;7.268;2022-10-13T03:07:58;23.55;;;14.10;;
49217;SDS011;35045;51.194;7.268;2022-10-13T03:10:24;19.42;;;13.82;;
49217;SDS011;35045;51.194;7.268;2022-10-13T03:12:52;20.67;;;13.63;;
49217;SDS011;35045;51.194;7.268;2022-10-13T03:15:19;19.98;;;13.18;;
49217;SDS011;35045;51.194;7.268;2022-10-13T03:17:45;19.48;;;13.27;;
49217;SDS011;35045;51.194;7.268;2022-10-13T03:20:12;22.50;;;14.25;;
49217;SDS011;35045;51.194;7.268;2022-10-13T03:22:38;20.58;;;12.82;;
49217;SDS011;35045;51.194;7.268;2022-10-13T03:25:04;22.35;;;13.50;;
49217;SDS011;35045;51.194;7.268;2022-10-13T03:27:31;21.42;;;13.82;;
49217;SDS011;35045;51.194;7.268;2022-10-13T03:29:57;23.48;;;13.88;;
49217;SDS011;35045;51.194;7.268;2022-10-13T03:32:23;18.90;;;13.50;;
49217;SDS011;35045;51.194;7.268;2022-10-13T03:34:49;20.35;;;13.40;;
49217;SDS011;35045;51.194;7.268;2022-10-13T03:37:16;20.27;;;14.00;;
49217;SDS011;35045;51.194;7.268;2022-10-13T03:39:42;20.33;;;12.85;;
49217;SDS011;35045;51.194;7.268;2022-10-13T03:42:09;19.88;;;13.25;;
49217;SDS011;35045;51.194;7.268;2022-10-13T03:44:35;22.75;;;12.75;;
49217;SDS011;35045;51.194;7.268;2022-10-13T03:47:01;20.83;;;13.73;;
49217;SDS011;35045;51.194;7.268;2022-10-13T03:49:27;20.40;;;13.80;;
49217;SDS011;35045;51.194;7.268;2022-10-13T03:51:53;21.08;;;13.48;;
49217;SDS011;35045;51.194;7.268;2022-10-13T03:54:20;21.85;;;13.23;;
49217;SDS011;35045;51.194;7.268;2022-10-13T03:56:46;19.83;;;12.95;;
49217;SDS011;35045;51.194;7.268;2022-10-13T03:59:12;23.17;;;13.32;;
49217;SDS011;35045;51.194;7.268;2022-10-13T04:01:41;17.83;;;12.82;;
49217;SDS011;35045;51.194;7.268;2022-10-13T04:04:08;21.27;;;13.93;;
49217;SDS011;35045;51.194;7.268;2022-10-13T04:06:36;19.30;;;12.68;;
49217;SDS011;35045;51.194;7.268;2022-10-13T04:09:02;20.65;;;13.13;;
49217;SDS011;35045;51.194;7.268;2022-10-13T04:11:28;19.95;;;13.77;;
49217;SDS011;35045;51.194;7.268;2022-10-13T04:13:55;18.92;;;12.88;;
49217;SDS011;35045;51.194;7.268;2022-10-13T04:16:23;23.15;;;13.98;;
49217;SDS011;35045;51.194;7.268;2022-10-13T04:18:54;20.23;;;13.90;;
49217;SDS011;35045;51.194;7.268;2022-10-13T04:21:26;17.63;;;12.93;;
49217;SDS011;35045;51.194;7.268;2022-10-13T04:23:55;18.67;;;12.18;;
49217;SDS011;35045;51.194;7.268;2022-10-13T04:26:23;18.90;;;13.15;;
49217;SDS011;35045;51.194;7.268;2022-10-13T04:28:52;19.65;;;12.95;;
49217;SDS011;35045;51.194;7.268;2022-10-13T04:31:19;19.58;;;13.60;;
49217;SDS011;35045;51.194;7.268;2022-10-13T04:33:46;23.77;;;13.38;;
49217;SDS011;35045;51.194;7.268;2022-10-13T04:36:13;23.52;;;14.48;;
49217;SDS011;35045;51.194;7.268;2022-10-13T04:38:40;21.55;;;12.75;;
49217;SDS011;35045;51.194;7.268;2022-10-13T04:41:08;19.00;;;12.88;;
49217;SDS011;35045;51.194;7.268;2022-10-13T04:43:35;22.10;;;13.65;;
49217;SDS011;35045;51.194;7.268;2022-10-13T04:48:29;20.27;;;13.65;;
49217;SDS011;35045;51.194;7.268;2022-10-13T04:50:58;18.80;;;13.68;;
49217;SDS011;35045;51.194;7.268;2022-10-13T04:53:26;22.00;;;13.23;;
49217;SDS011;35045;51.194;7.268;2022-10-13T04:55:54;20.73;;;14.13;;
49217;SDS011;35045;51.194;7.268;2022-10-13T04:58:21;21.73;;;12.65;;
49217;SDS011;35045;51.194;7.268;2022-10-13T05:00:47;20.98;;;13.40;;
49217;SDS011;35045;51.194;7.268;2022-10-13T05:03:14;19.73;;;13.48;;
49217;SDS011;35045;51.194;7.268;2022-10-13T05:05:40;20.80;;;13.27;;
49217;SDS011;35045;51.194;7.268;2022-10-13T05:08:06;21.17;;;13.10;;
49217;SDS011;35045;51.194;7.268;2022-10-13T05:10:32;22.27;;;13.95;;
49217;SDS011;35045;51.194;7.268;2022-10-13T05:12:59;20.35;;;15.00;;
49217;SDS011;35045;51.194;7.268;2022-10-13T05:15:25;20.73;;;13.88;;
49217;SDS011;35045;51.194;7.268;2022-10-13T05:17:52;21.83;;;13.48;;
49217;SDS011;35045;51.194;7.268;2022-10-13T05:20:18;22.00;;;13.55;;
49217;SDS011;35045;51.194;7.268;2022-10-13T05:22:44;19.08;;;13.88;;
49217;SDS011;35045;51.194;7.268;2022-10-13T05:25:10;22.02;;;13.65;;
49217;SDS011;35045;51.194;7.268;2022-10-13T05:27:36;18.67;;;13.32;;
49217;SDS011;35045;51.194;7.268;2022-10-13T05:30:03;18.50;;;11.95;;
49217;SDS011;35045;51.194;7.268;2022-10-13T05:32:29;18.33;;;12.55;;
49217;SDS011;35045;51.194;7.268;2022-10-13T05:34:55;18.30;;;13.30;;
49217;SDS011;35045;51.194;7.268;2022-10-13T05:37:21;18.70;;;12.73;;
49217;SDS011;35045;51.194;7.268;2022-10-13T05:39:47;23.45;;;13.93;;
49217;SDS011;35045;51.194;7.268;2022-10-13T05:42:14;22.80;;;13.40;;
49217;SDS011;35045;51.194;7.268;2022-10-13T05:44:40;19.40;;;13.02;;
49217;SDS011;35045;51.194;7.268;2022-10-13T05:47:07;25.10;;;14.50;;
49217;SDS011;35045;51.194;7.268;2022-10-13T05:49:33;21.73;;;13.43;;
49217;SDS011;35045;51.194;7.268;2022-10-13T05:52:05;22.90;;;13.48;;
49217;SDS011;35045;51.194;7.268;2022-10-13T05:54:41;22.77;;;12.75;;
49217;SDS011;35045;51.194;7.268;2022-10-13T05:57:13;17.40;;;11.73;;
49217;SDS011;35045;51.194;7.268;2022-10-13T05:59:43;17.92;;;12.55;;
49217;SDS011;35045;51.194;7.268;2022-10-13T06:02:13;21.65;;;13.27;;
49217;SDS011;35045;51.194;7.268;2022-10-13T06:04:45;17.05;;;13.35;;
49217;SDS011;35045;51.194;7.268;2022-10-13T06:07:15;18.52;;;15.02;;
49217;SDS011;35045;51.194;7.268;2022-10-13T06:09:42;20.90;;;14.10;;
49217;SDS011;35045;51.194;7.268;2022-10-13T06:12:08;20.10;;;13.55;;
49217;SDS011;35045;51.194;7.268;2022-10-13T06:14:35;18.88;;;13.02;;
49217;SDS011;35045;51.194;7.268;2022-10-13T06:17:02;18.98;;;12.75;;
49217;SDS011;35045;51.194;7.268;2022-10-13T06:19:28;19.92;;;14.73;;
49217;SDS011;35045;51.194;7.268;2022-10-13T06:21:54;70.28;;;52.75;;
49217;SDS011;35045;51.194;7.268;2022-10-13T06:24:22;66.40;;;52.83;;
49217;SDS011;35045;51.194;7.268;2022-10-13T06:26:48;40.47;;;32.78;;
49217;SDS011;35045;51.194;7.268;2022-10-13T06:29:15;27.60;;;21.70;;
49217;SDS011;35045;51.194;7.268;2022-10-13T06:31:41;24.42;;;17.70;;
49217;SDS011;35045;51.194;7.268;2022-10-13T06:34:07;25.85;;;19.35;;
49217;SDS011;35045;51.194;7.268;2022-10-13T06:36:33;24.85;;;16.85;;
49217;SDS011;35045;51.194;7.268;2022-10-13T06:38:59;20.60;;;13.65;;
49217;SDS011;35045;51.194;7.268;2022-10-13T06:41:25;20.60;;;13.23;;
49217;SDS011;35045;51.194;7.268;2022-10-13T06:43:51;23.20;;;13.00;;
49217;SDS011;35045;51.194;7.268;2022-10-13T06:46:17;20.83;;;13.38;;
49217;SDS011;35045;51.194;7.268;2022-10-13T06:48:44;19.80;;;13.82;;
49217;SDS011;35045;51.194;7.268;2022-10-13T06:51:10;19.88;;;13.68;;
49217;SDS011;35045;51.194;7.268;2022-10-13T06:53:36;22.80;;;16.77;;
49217;SDS011;35045;51.194;7.268;2022-10-13T06:56:04;22.50;;;15.23;;
49217;SDS011;35045;51.194;7.268;2022-10-13T06:58:31;19.17;;;13.38;;
49217;SDS011;35045;51.194;7.268;2022-10-13T07:00:58;20.95;;;14.25;;
49217;SDS011;35045;51.194;7.268;2022-10-13T07:03:24;20.48;;;13.30;;
49217;SDS011;35045;51.194;7.268;2022-10-13T07:05:51;17.25;;;12.77;;
49217;SDS011;35045;51.194;7.268;2022-10-13T07:08:18;18.48;;;12.50;;
49217;SDS011;35045;51.194;7.268;2022-10-13T07:10:44;19.40;;;12.23;;
49217;SDS011;35045;51.194;7.268;2022-10-13T07:13:10;19.20;;;12.85;;
49217;SDS011;35045;51.194;7.268;2022-10-13T07:15:37;21.38;;;12.60;;
49217;SDS011;35045;51.194;7.268;2022-10-13T07:18:05;17.25;;;12.82;;
49217;SDS011;35045;51.194;7.268;2022-10-13T07:20:31;17.92;;;11.75;;
49217;SDS011;35045;51.194;7.268;2022-10-13T07:22:58;16.10;;;10.93;;
49217;SDS011;35045;51.194;7.268;2022-10-13T07:25:24;16.17;;;10.68;;
49217;SDS011;35045;51.194;7.268;2022-10-13T07:27:51;17.73;;;10.05;;
49217;SDS011;35045;51.194;7.268;2022-10-13T07:30:17;16.23;;;10.85;;
49217;SDS011;35045;51.194;7.268;2022-10-13T07:32:43;18.63;;;11.32;;
49217;SDS011;35045;51.194;7.268;2022-10-13T07:35:09;17.88;;;11.68;;
49217;SDS011;35045;51.194;7.268;2022-10-13T07:37:36;15.10;;;9.70;;
49217;SDS011;35045;51.194;7.268;2022-10-13T07:40:03;16.10;;;10.57;;
49217;SDS011;35045;51.194;7.268;2022-10-13T07:42:30;15.55;;;10.88;;
49217;SDS011;35045;51.194;7.268;2022-10-13T07:44:56;15.50;;;10.32;;
49217;SDS011;35045;51.194;7.268;2022-10-13T07:47:23;15.75;;;10.70;;
49217;SDS011;35045;51.194;7.268;2022-10-13T07:49:49;17.05;;;11.65;;
49217;SDS011;35045;51.194;7.268;2022-10-13T07:52:15;17.83;;;10.43;;
49217;SDS011;35045;51.194;7.268;2022-10-13T07:54:41;15.27;;;10.68;;
49217;SDS011;35045;51.194;7.268;2022-10-13T07:57:08;18.90;;;11.27;;
49217;SDS011;35045;51.194;7.268;2022-10-13T07:59:34;18.13;;;11.00;;
49217;SDS011;35045;51.194;7.268;2022-10-13T08:02:00;19.88;;;11.25;;
49217;SDS011;35045;51.194;7.268;2022-10-13T08:04:30;17.88;;;11.45;;
49217;SDS011;35045;51.194;7.268;2022-10-13T08:06:57;19.77;;;11.60;;
49217;SDS011;35045;51.194;7.268;2022-10-13T08:09:24;17.98;;;10.70;;
49217;SDS011;35045;51.194;7.268;2022-10-13T08:11:50;15.65;;;10.27;;
49217;SDS011;35045;51.194;7.268;2022-10-13T08:14:19;16.48;;;10.93;;
49217;SDS011;35045;51.194;7.268;2022-10-13T08:16:45;17.67;;;10.95;;
49217;SDS011;35045;51.194;7.268;2022-10-13T08:19:13;17.42;;;10.27;;
49217;SDS011;35045;51.194;7.268;2022-10-13T08:21:40;17.30;;;11.43;;
49217;SDS011;35045;51.194;7.268;2022-10-13T08:24:23;16.80;;;11.00;;
49217;SDS011;35045;51.194;7.268;2022-10-13T08:26:50;19.15;;;11.50;;
49217;SDS011;35045;51.194;7.268;2022-10-13T08:29:16;18.40;;;11.18;;
49217;SDS011;35045;51.194;7.268;2022-10-13T08:31:46;18.30;;;12.32;;
49217;SDS011;35045;51.194;7.268;2022-10-13T08:34:17;17.63;;;10.50;;
49217;SDS011;35045;51.194;7.268;2022-10-13T08:36:43;17.85;;;11.15;;
49217;SDS011;35045;51.194;7.268;2022-10-13T08:39:10;17.23;;;11.75;;
49217;SDS011;35045;51.194;7.268;2022-10-13T08:41:39;16.88;;;10.90;;
49217;SDS011;35045;51.194;7.268;2022-10-13T08:47:08;17.38;;;11.07;;
49217;SDS011;35045;51.194;7.268;2022-10-13T08:49:52;16.95;;;10.60;;
49217;SDS011;35045;51.194;7.268;2022-10-13T08:52:25;18.23;;;10.80;;
49217;SDS011;35045;51.194;7.268;2022-10-13T08:54:54;20.65;;;11.10;;
49217;SDS011;35045;51.194;7.268;2022-10-13T08:57:20;19.55;;;11.20;;
49217;SDS011;35045;51.194;7.268;2022-10-13T08:59:47;16.23;;;11.05;;
49217;SDS011;35045;51.194;7.268;2022-10-13T09:02:21;16.50;;;10.93;;
49217;SDS011;35045;51.194;7.268;2022-10-13T09:04:49;17.30;;;11.10;;
49217;SDS011;35045;51.194;7.268;2022-10-13T09:07:18;18.42;;;11.35;;
49217;SDS011;35045;51.194;7.268;2022-10-13T09:12:19;17.65;;;12.00;;
49217;SDS011;35045;51.194;7.268;2022-10-13T09:15:23;19.98;;;12.23;;
49217;SDS011;35045;51.194;7.268;2022-10-13T09:17:42;17.80;;;11.07;;
49217;SDS011;35045;51.194;7.268;2022-10-13T09:20:17;19.33;;;11.85;;
49217;SDS011;35045;51.194;7.268;2022-10-13T09:22:59;15.57;;;10.27;;
49217;SDS011;35045;51.194;7.268;2022-10-13T09:25:44;19.63;;;10.50;;
49217;SDS011;35045;51.194;7.268;2022-10-13T09:28:15;18.90;;;10.85;;
49217;SDS011;35045;51.194;7.268;2022-10-13T09:30:59;17.98;;;10.35;;
49217;SDS011;35045;51.194;7.268;2022-10-13T09:33:28;14.60;;;9.48;;
49217;SDS011;35045;51.194;7.268;2022-10-13T09:38:27;17.92;;;10.82;;
49217;SDS011;35045;51.194;7.268;2022-10-13T09:49:35;18.13;;;10.18;;
49217;SDS011;35045;51.194;7.268;2022-10-13T09:52:29;18.70;;;11.50;;
49217;SDS011;35045;51.194;7.268;2022-10-13T09:54:50;18.13;;;11.30;;
49217;SDS011;35045;51.194;7.268;2022-10-13T10:00:13;16.00;;;9.60;;
49217;SDS011;35045;51.194;7.268;2022-10-13T10:03:29;13.65;;;9.00;;
49217;SDS011;35045;51.194;7.268;2022-10-13T10:05:56;14.40;;;9.15;;
49217;SDS011;35045;51.194;7.268;2022-10-13T10:11:04;16.33;;;8.70;;
49217;SDS011;35045;51.194;7.268;2022-10-13T10:13:36;14.07;;;8.13;;
49217;SDS011;35045;51.194;7.268;2022-10-13T10:16:04;14.20;;;8.10;;
49217;SDS011;35045;51.194;7.268;2022-10-13T10:18:48;16.20;;;8.52;;
49217;SDS011;35045;51.194;7.268;2022-10-13T10:24:28;11.48;;;8.10;;
49217;SDS011;35045;51.194;7.268;2022-10-13T10:35:14;14.15;;;7.82;;
49217;SDS011;35045;51.194;7.268;2022-10-13T10:38:07;13.52;;;8.95;;
49217;SDS011;35045;51.194;7.268;2022-10-13T10:41:07;15.13;;;8.57;;
49217;SDS011;35045;51.194;7.268;2022-10-13T10:43:53;13.40;;;8.38;;
49217;SDS011;35045;51.194;7.268;2022-10-13T10:46:34;12.77;;;8.43;;
49217;SDS011;35045;51.194;7.268;2022-10-13T10:51:54;12.18;;;7.40;;
49217;SDS011;35045;51.194;7.268;2022-10-13T10:57:07;15.65;;;7.78;;
49217;SDS011;35045;51.194;7.268;2022-10-13T11:04:51;12.90;;;7.78;;
49217;SDS011;35045;51.194;7.268;2022-10-13T11:15:01;17.73;;;9.20;;
49217;SDS011;35045;51.194;7.268;2022-10-13T11:17:34;13.30;;;7.78;;
49217;SDS011;35045;51.194;7.268;2022-10-13T11:30:48;13.10;;;8.02;;
49217;SDS011;35045;51.194;7.268;2022-10-13T11:39:01;23.98;;;10.93;;
49217;SDS011;35045;51.194;7.268;2022-10-13T11:50:39;14.43;;;8.52;;
49217;SDS011;35045;51.194;7.268;2022-10-13T11:53:17;14.32;;;8.38;;
49217;SDS011;35045;51.194;7.268;2022-10-13T11:58:21;13.55;;;10.02;;
49217;SDS011;35045;51.194;7.268;2022-10-13T12:01:03;16.58;;;7.80;;
49217;SDS011;35045;51.194;7.268;2022-10-13T12:03:49;13.40;;;8.07;;
49217;SDS011;35045;51.194;7.268;2022-10-13T12:08:44;14.32;;;8.40;;
49217;SDS011;35045;51.194;7.268;2022-10-13T12:11:28;15.18;;;8.43;;
49217;SDS011;35045;51.194;7.268;2022-10-13T12:13:56;16.08;;;8.35;;
49217;SDS011;35045;51.194;7.268;2022-10-13T12:16:24;13.50;;;8.40;;
49217;SDS011;35045;51.194;7.268;2022-10-13T12:18:52;15.65;;;7.80;;
49217;SDS011;35045;51.194;7.268;2022-10-13T12:21:21;11.80;;;7.80;;
49217;SDS011;35045;51.194;7.268;2022-10-13T12:23:48;14.23;;;7.45;;
49217;SDS011;35045;51.194;7.268;2022-10-13T12:26:19;13.27;;;8.15;;
49217;SDS011;35045;51.194;7.268;2022-10-13T12:31:23;14.25;;;8.80;;
49217;SDS011;35045;51.194;7.268;2022-10-13T12:33:52;16.95;;;8.75;;
49217;SDS011;35045;51.194;7.268;2022-10-13T12:36:29;15.73;;;8.52;;
49217;SDS011;35045;51.194;7.268;2022-10-13T12:38:59;16.10;;;9.15;;
49217;SDS011;35045;51.194;7.268;2022-10-13T12:41:35;14.00;;;8.63;;
49217;SDS011;35045;51.194;7.268;2022-10-13T12:44:04;14.23;;;8.65;;
49217;SDS011;35045;51.194;7.268;2022-10-13T12:49:03;15.75;;;9.85;;
49217;SDS011;35045;51.194;7.268;2022-10-13T12:51:30;16.50;;;10.68;;
49217;SDS011;35045;51.194;7.268;2022-10-13T12:53:56;18.83;;;9.88;;
49217;SDS011;35045;51.194;7.268;2022-10-13T12:58:56;17.98;;;9.57;;
49217;SDS011;35045;51.194;7.268;2022-10-13T13:01:28;17.30;;;10.10;;
49217;SDS011;35045;51.194;7.268;2022-10-13T13:04:00;17.20;;;10.43;;
49217;SDS011;35045;51.194;7.268;2022-10-13T13:06:39;16.50;;;9.45;;
49217;SDS011;35045;51.194;7.268;2022-10-13T13:09:30;18.92;;;10.23;;
49217;SDS011;35045;51.194;7.268;2022-10-13T13:14:43;16.40;;;9.85;;
49217;SDS011;35045;51.194;7.268;2022-10-13T13:19:52;19.05;;;11.15;;
49217;SDS011;35045;51.194;7.268;2022-10-13T13:22:20;14.88;;;11.20;;
49217;SDS011;35045;51.194;7.268;2022-10-13T13:24:48;19.70;;;12.85;;
49217;SDS011;35045;51.194;7.268;2022-10-13T13:29:42;19.40;;;10.95;;
49217;SDS011;35045;51.194;7.268;2022-10-13T13:32:15;21.25;;;13.73;;
49217;SDS011;35045;51.194;7.268;2022-10-13T13:34:44;17.08;;;11.18;;
49217;SDS011;35045;51.194;7.268;2022-10-13T13:37:23;17.75;;;12.30;;
49217;SDS011;35045;51.194;7.268;2022-10-13T13:39:55;21.42;;;14.20;;
49217;SDS011;35045;51.194;7.268;2022-10-13T13:42:21;21.80;;;12.05;;
49217;SDS011;35045;51.194;7.268;2022-10-13T13:44:48;18.60;;;12.00;;
49217;SDS011;35045;51.194;7.268;2022-10-13T13:47:21;17.20;;;11.35;;
49217;SDS011;35045;51.194;7.268;2022-10-13T13:49:52;18.02;;;11.77;;
49217;SDS011;35045;51.194;7.268;2022-10-13T13:52:19;17.70;;;11.40;;
49217;SDS011;35045;51.194;7.268;2022-10-13T13:54:47;19.65;;;12.45;;
49217;SDS011;35045;51.194;7.268;2022-10-13T13:57:13;17.20;;;12.95;;
49217;SDS011;35045;51.194;7.268;2022-10-13T13:59:40;17.60;;;12.90;;
49217;SDS011;35045;51.194;7.268;2022-10-13T14:02:11;19.67;;;12.50;;
49217;SDS011;35045;51.194;7.268;2022-10-13T14:04:40;23.67;;;15.23;;
49217;SDS011;35045;51.194;7.268;2022-10-13T14:07:06;22.38;;;14.05;;
49217;SDS011;35045;51.194;7.268;2022-10-13T14:09:32;19.95;;;13.93;;
49217;SDS011;35045;51.194;7.268;2022-10-13T14:11:59;18.23;;;12.00;;
49217;SDS011;35045;51.194;7.268;2022-10-13T14:14:25;19.75;;;12.13;;
49217;SDS011;35045;51.194;7.268;2022-10-13T14:16:51;17.83;;;12.43;;
49217;SDS011;35045;51.194;7.268;2022-10-13T14:19:18;19.15;;;12.73;;
49217;SDS011;35045;51.194;7.268;2022-10-13T14:21:44;19.08;;;13.23;;
49217;SDS011;35045;51.194;7.268;2022-10-13T14:24:10;18.77;;;11.82;;
49217;SDS011;35045;51.194;7.268;2022-10-13T14:26:36;19.33;;;12.32;;
49217;SDS011;35045;51.194;7.268;2022-10-13T14:29:02;19.35;;;12.15;;
49217;SDS011;35045;51.194;7.268;2022-10-13T14:31:29;20.83;;;13.35;;
49217;SDS011;35045;51.194;7.268;2022-10-13T14:33:55;20.15;;;12.80;;
49217;SDS011;35045;51.194;7.268;2022-10-13T14:36:21;21.10;;;12.13;;
49217;SDS011;35045;51.194;7.268;2022-10-13T14:38:48;18.42;;;12.35;;
49217;SDS011;35045;51.194;7.268;2022-10-13T14:41:16;17.08;;;11.82;;
49217;SDS011;35045;51.194;7.268;2022-10-13T14:43:42;18.63;;;11.27;;
49217;SDS011;35045;51.194;7.268;2022-10-13T14:46:08;21.27;;;11.32;;
49217;SDS011;35045;51.194;7.268;2022-10-13T14:48:35;17.33;;;10.65;;
49217;SDS011;35045;51.194;7.268;2022-10-13T14:51:03;20.08;;;11.50;;
49217;SDS011;35045;51.194;7.268;2022-10-13T14:53:33;19.58;;;11.18;;
49217;SDS011;35045;51.194;7.268;2022-10-13T14:56:01;17.77;;;10.45;;
49217;SDS011;35045;51.194;7.268;2022-10-13T14:58:27;18.65;;;11.68;;
49217;SDS011;35045;51.194;7.268;2022-10-13T15:00:54;15.68;;;9.48;;
49217;SDS011;35045;51.194;7.268;2022-10-13T15:03:21;15.85;;;10.38;;
49217;SDS011;35045;51.194;7.268;2022-10-13T15:05:48;16.08;;;10.35;;
49217;SDS011;35045;51.194;7.268;2022-10-13T15:08:14;19.33;;;10.30;;
49217;SDS011;35045;51.194;7.268;2022-10-13T15:10:41;16.23;;;9.98;;
49217;SDS011;35045;51.194;7.268;2022-10-13T15:13:07;15.93;;;10.10;;
49217;SDS011;35045;51.194;7.268;2022-10-13T15:15:33;15.82;;;10.40;;
49217;SDS011;35045;51.194;7.268;2022-10-13T15:17:59;19.58;;;10.90;;
49217;SDS011;35045;51.194;7.268;2022-10-13T15:20:25;16.08;;;11.18;;
49217;SDS011;35045;51.194;7.268;2022-10-13T15:22:52;17.55;;;12.15;;
49217;SDS011;35045;51.194;7.268;2022-10-13T15:25:18;20.15;;;12.27;;
49217;SDS011;35045;51.194;7.268;2022-10-13T15:27:45;17.30;;;11.82;;
49217;SDS011;35045;51.194;7.268;2022-10-13T15:30:11;19.85;;;12.25;;
49217;SDS011;35045;51.194;7.268;2022-10-13T15:32:37;18.73;;;11.55;;
49217;SDS011;35045;51.194;7.268;2022-10-13T15:35:03;23.88;;;14.98;;
49217;SDS011;35045;51.194;7.268;2022-10-13T15:37:30;20.98;;;14.57;;
49217;SDS011;35045;51.194;7.268;2022-10-13T15:39:57;20.58;;;14.15;;
49217;SDS011;35045;51.194;7.268;2022-10-13T15:42:23;18.58;;;12.57;;
49217;SDS011;35045;51.194;7.268;2022-10-13T15:44:49;22.30;;;13.73;;
49217;SDS011;35045;51.194;7.268;2022-10-13T15:47:29;24.40;;;13.20;;
49217;SDS011;35045;51.194;7.268;2022-10-13T15:49:55;18.90;;;13.82;;
49217;SDS011;35045;51.194;7.268;2022-10-13T15:52:22;21.38;;;13.73;;
49217;SDS011;35045;51.194;7.268;2022-10-13T15:54:48;18.10;;;13.95;;
49217;SDS011;35045;51.194;7.268;2022-10-13T15:57:16;19.88;;;13.93;;
49217;SDS011;35045;51.194;7.268;2022-10-13T15:59:44;24.38;;;14.93;;
49217;SDS011;35045;51.194;7.268;2022-10-13T16:02:10;17.77;;;12.65;;
49217;SDS011;35045;51.194;7.268;2022-10-13T16:04:36;20.33;;;12.95;;
49217;SDS011;35045;51.194;7.268;2022-10-13T16:07:02;18.55;;;13.18;;
49217;SDS011;35045;51.194;7.268;2022-10-13T16:09:29;16.45;;;11.65;;
49217;SDS011;35045;51.194;7.268;2022-10-13T16:11:55;19.67;;;12.32;;
49217;SDS011;35045;51.194;7.268;2022-10-13T16:14:21;18.95;;;13.38;;
49217;SDS011;35045;51.194;7.268;2022-10-13T16:16:48;18.75;;;12.55;;
49217;SDS011;35045;51.194;7.268;2022-10-13T16:19:14;20.50;;;12.73;;
49217;SDS011;35045;51.194;7.268;2022-10-13T16:21:40;18.80;;;13.05;;
49217;SDS011;35045;51.194;7.268;2022-10-13T16:24:06;22.35;;;12.45;;
49217;SDS011;35045;51.194;7.268;2022-10-13T16:26:33;18.55;;;11.07;;
49217;SDS011;35045;51.194;7.268;2022-10-13T16:28:59;18.83;;;11.55;;
49217;SDS011;35045;51.194;7.268;2022-10-13T16:31:25;18.15;;;11.25;;
49217;SDS011;35045;51.194;7.268;2022-10-13T16:33:51;16.50;;;10.57;;
49217;SDS011;35045;51.194;7.268;2022-10-13T16:36:18;16.92;;;11.07;;